sensor_id;sensor_type;location;lat;lon;timestamp;pressure;altitude;pressure_sealevel;temperature;humidity
69911;BME280;63555;49.920;17.868;2023-03-15T00:04:27;97646.06;;;3.75;67.35
69911;BME280;63555;49.920;17.868;2023-03-15T00:09:28;97669.38;;;3.64;67.51
69911;BME280;63555;49.920;17.868;2023-03-15T00:14:29;97690.94;;;3.54;67.61
69911;BME280;63555;49.920;17.868;2023-03-15T00:19:30;97714.13;;;3.44;67.09
69911;BME280;63555;49.920;17.868;2023-03-15T00:24:31;97713.66;;;3.37;67.44
69911;BME280;63555;49.920;17.868;2023-03-15T00:29:31;97713.97;;;3.33;67.50
69911;BME280;63555;49.920;17.868;2023-03-15T00:34:32;97732.59;;;3.27;67.40
69911;BME280;63555;49.920;17.868;2023-03-15T00:39:32;97741.63;;;3.21;67.59
69911;BME280;63555;49.920;17.868;2023-03-15T00:44:36;97754.28;;;3.13;68.12
69911;BME280;63555;49.920;17.868;2023-03-15T00:49:37;97748.63;;;3.06;67.30
69911;BME280;63555;49.920;17.868;2023-03-15T00:54:38;97776.91;;;2.98;67.71
69911;BME280;63555;49.920;17.868;2023-03-15T00:59:38;97778.47;;;2.86;68.15
69911;BME280;63555;49.920;17.868;2023-03-15T01:04:39;97800.13;;;2.73;68.43
69911;BME280;63555;49.920;17.868;2023-03-15T01:09:39;97807.81;;;2.60;67.89
69911;BME280;63555;49.920;17.868;2023-03-15T01:14:41;97816.97;;;2.51;67.96
69911;BME280;63555;49.920;17.868;2023-03-15T01:19:41;97823.56;;;2.43;68.30
69911;BME280;63555;49.920;17.868;2023-03-15T01:24:41;97831.81;;;2.35;68.11
69911;BME280;63555;49.920;17.868;2023-03-15T01:29:42;97836.78;;;2.24;69.05
69911;BME280;63555;49.920;17.868;2023-03-15T01:34:42;97848.19;;;2.21;68.60
69911;BME280;63555;49.920;17.868;2023-03-15T01:39:42;97853.03;;;2.28;68.99
69911;BME280;63555;49.920;17.868;2023-03-15T01:44:56;97843.88;;;2.36;68.97
69911;BME280;63555;49.920;17.868;2023-03-15T01:50:08;97845.88;;;2.47;69.30
69911;BME280;63555;49.920;17.868;2023-03-15T01:55:15;97841.81;;;2.57;69.13
69911;BME280;63555;49.920;17.868;2023-03-15T02:00:19;97841.47;;;2.63;69.10
69911;BME280;63555;49.920;17.868;2023-03-15T02:05:23;97842.97;;;2.67;68.49
69911;BME280;63555;49.920;17.868;2023-03-15T02:10:43;97843.72;;;2.69;68.49
69911;BME280;63555;49.920;17.868;2023-03-15T02:15:44;97831.38;;;2.73;68.24
69911;BME280;63555;49.920;17.868;2023-03-15T02:31:03;97835.84;;;2.85;67.93
69911;BME280;63555;49.920;17.868;2023-03-15T02:36:24;97846.44;;;2.82;67.88
69911;BME280;63555;49.920;17.868;2023-03-15T02:41:35;97865.19;;;2.73;67.71
69911;BME280;63555;49.920;17.868;2023-03-15T02:46:36;97875.53;;;2.59;68.18
69911;BME280;63555;49.920;17.868;2023-03-15T02:51:37;97885.72;;;2.47;67.82
69911;BME280;63555;49.920;17.868;2023-03-15T02:56:37;97886.16;;;2.40;68.22
69911;BME280;63555;49.920;17.868;2023-03-15T03:01:38;97903.97;;;2.32;68.49
69911;BME280;63555;49.920;17.868;2023-03-15T03:06:38;97917.50;;;2.22;67.86
69911;BME280;63555;49.920;17.868;2023-03-15T03:11:38;97926.38;;;2.18;68.61
69911;BME280;63555;49.920;17.868;2023-03-15T03:16:39;97951.47;;;2.19;68.26
69911;BME280;63555;49.920;17.868;2023-03-15T03:21:41;97947.19;;;2.18;67.61
69911;BME280;63555;49.920;17.868;2023-03-15T03:26:42;97959.44;;;2.16;67.79
69911;BME280;63555;49.920;17.868;2023-03-15T03:31:45;97964.81;;;2.13;67.95
69911;BME280;63555;49.920;17.868;2023-03-15T03:36:45;97975.22;;;2.13;68.41
69911;BME280;63555;49.920;17.868;2023-03-15T03:41:47;97970.09;;;2.12;67.57
69911;BME280;63555;49.920;17.868;2023-03-15T03:46:47;97981.59;;;2.08;68.08
69911;BME280;63555;49.920;17.868;2023-03-15T03:51:48;97989.72;;;2.02;67.93
69911;BME280;63555;49.920;17.868;2023-03-15T03:56:48;97977.81;;;1.98;68.31
69911;BME280;63555;49.920;17.868;2023-03-15T04:01:48;97984.09;;;1.94;68.75
69911;BME280;63555;49.920;17.868;2023-03-15T04:06:50;97993.06;;;1.88;68.25
69911;BME280;63555;49.920;17.868;2023-03-15T04:11:50;97995.91;;;1.83;68.71
69911;BME280;63555;49.920;17.868;2023-03-15T04:16:51;97997.13;;;1.76;68.67
69911;BME280;63555;49.920;17.868;2023-03-15T04:21:53;98003.47;;;1.71;68.94
69911;BME280;63555;49.920;17.868;2023-03-15T04:26:54;98004.78;;;1.62;68.27
69911;BME280;63555;49.920;17.868;2023-03-15T04:31:56;98009.16;;;1.44;68.23
69911;BME280;63555;49.920;17.868;2023-03-15T04:37:00;98021.47;;;1.23;68.57
69911;BME280;63555;49.920;17.868;2023-03-15T04:42:01;98030.56;;;0.98;68.94
69911;BME280;63555;49.920;17.868;2023-03-15T04:47:02;98043.00;;;0.72;68.94
69911;BME280;63555;49.920;17.868;2023-03-15T04:52:03;98044.84;;;0.51;69.35
69911;BME280;63555;49.920;17.868;2023-03-15T04:57:04;98039.47;;;0.37;70.09
69911;BME280;63555;49.920;17.868;2023-03-15T05:02:04;98039.53;;;0.36;70.39
69911;BME280;63555;49.920;17.868;2023-03-15T05:07:05;98041.00;;;0.41;70.70
69911;BME280;63555;49.920;17.868;2023-03-15T05:12:05;98045.00;;;0.48;70.48
69911;BME280;63555;49.920;17.868;2023-03-15T05:17:06;98053.34;;;0.55;70.12
69911;BME280;63555;49.920;17.868;2023-03-15T05:22:07;98060.75;;;0.62;70.33
69911;BME280;63555;49.920;17.868;2023-03-15T05:27:08;98075.19;;;0.68;70.18
69911;BME280;63555;49.920;17.868;2023-03-15T05:32:08;98087.03;;;0.74;70.41
69911;BME280;63555;49.920;17.868;2023-03-15T05:37:09;98086.75;;;0.80;70.13
69911;BME280;63555;49.920;17.868;2023-03-15T05:42:09;98120.16;;;0.87;70.59
69911;BME280;63555;49.920;17.868;2023-03-15T05:47:09;98130.09;;;0.97;71.03
69911;BME280;63555;49.920;17.868;2023-03-15T05:52:10;98133.88;;;1.08;70.55
69911;BME280;63555;49.920;17.868;2023-03-15T05:57:10;98137.72;;;1.18;70.23
69911;BME280;63555;49.920;17.868;2023-03-15T06:02:11;98145.00;;;1.29;70.52
69911;BME280;63555;49.920;17.868;2023-03-15T06:07:11;98151.34;;;1.41;70.34
69911;BME280;63555;49.920;17.868;2023-03-15T06:12:11;98150.75;;;1.53;70.31
69911;BME280;63555;49.920;17.868;2023-03-15T06:17:12;98156.78;;;1.71;70.23
69911;BME280;63555;49.920;17.868;2023-03-15T06:22:12;98162.47;;;1.96;70.12
69911;BME280;63555;49.920;17.868;2023-03-15T06:27:12;98165.44;;;2.23;69.32
69911;BME280;63555;49.920;17.868;2023-03-15T06:32:13;98187.56;;;2.47;69.45
69911;BME280;63555;49.920;17.868;2023-03-15T06:37:13;98195.03;;;2.71;68.67
69911;BME280;63555;49.920;17.868;2023-03-15T06:42:15;98209.19;;;2.98;68.27
69911;BME280;63555;49.920;17.868;2023-03-15T06:47:15;98214.81;;;3.22;68.46
69911;BME280;63555;49.920;17.868;2023-03-15T06:52:16;98208.84;;;3.36;67.23
69911;BME280;63555;49.920;17.868;2023-03-15T06:57:16;98218.53;;;3.34;67.54
69911;BME280;63555;49.920;17.868;2023-03-15T07:02:17;98211.97;;;3.27;67.36
69911;BME280;63555;49.920;17.868;2023-03-15T07:07:18;98226.75;;;3.26;66.88
69911;BME280;63555;49.920;17.868;2023-03-15T07:12:18;98232.22;;;3.37;66.45
69911;BME280;63555;49.920;17.868;2023-03-15T07:17:18;98247.22;;;3.65;66.51
69911;BME280;63555;49.920;17.868;2023-03-15T07:22:19;98250.72;;;4.10;65.40
69911;BME280;63555;49.920;17.868;2023-03-15T07:27:21;98249.44;;;4.47;64.61
69911;BME280;63555;49.920;17.868;2023-03-15T07:32:22;98260.19;;;4.57;64.16
69911;BME280;63555;49.920;17.868;2023-03-15T07:37:22;98277.63;;;4.56;63.83
69911;BME280;63555;49.920;17.868;2023-03-15T07:42:23;98274.19;;;4.56;63.04
69911;BME280;63555;49.920;17.868;2023-03-15T07:47:23;98280.72;;;4.63;63.14
69911;BME280;63555;49.920;17.868;2023-03-15T07:52:24;98291.00;;;4.80;62.41
69911;BME280;63555;49.920;17.868;2023-03-15T07:57:24;98292.69;;;4.95;61.93
69911;BME280;63555;49.920;17.868;2023-03-15T08:02:25;98308.09;;;5.14;61.46
69911;BME280;63555;49.920;17.868;2023-03-15T08:07:25;98315.50;;;5.36;60.75
69911;BME280;63555;49.920;17.868;2023-03-15T08:12:25;98324.22;;;5.63;59.95
69911;BME280;63555;49.920;17.868;2023-03-15T08:17:26;98323.63;;;6.01;59.09
69911;BME280;63555;49.920;17.868;2023-03-15T08:22:26;98342.75;;;6.43;58.76
69911;BME280;63555;49.920;17.868;2023-03-15T08:27:26;98340.03;;;6.96;57.64
69911;BME280;63555;49.920;17.868;2023-03-15T08:32:27;98343.91;;;7.29;56.15
69911;BME280;63555;49.920;17.868;2023-03-15T08:37:27;98341.91;;;7.32;55.53
69911;BME280;63555;49.920;17.868;2023-03-15T08:42:27;98345.06;;;7.50;55.03
69911;BME280;63555;49.920;17.868;2023-03-15T08:47:28;98342.75;;;7.46;54.24
69911;BME280;63555;49.920;17.868;2023-03-15T08:52:28;98346.66;;;7.15;54.64
69911;BME280;63555;49.920;17.868;2023-03-15T08:57:29;98351.69;;;7.05;54.64
69911;BME280;63555;49.920;17.868;2023-03-15T09:02:31;98366.69;;;7.03;53.96
69911;BME280;63555;49.920;17.868;2023-03-15T09:07:33;98369.72;;;6.97;53.79
69911;BME280;63555;49.920;17.868;2023-03-15T09:12:33;98369.09;;;7.19;54.23
69911;BME280;63555;49.920;17.868;2023-03-15T09:17:33;98383.34;;;7.15;52.84
69911;BME280;63555;49.920;17.868;2023-03-15T09:22:34;98383.03;;;7.07;52.93
69911;BME280;63555;49.920;17.868;2023-03-15T09:27:35;98391.75;;;7.45;53.02
69911;BME280;63555;49.920;17.868;2023-03-15T09:32:35;98389.41;;;7.79;52.25
69911;BME280;63555;49.920;17.868;2023-03-15T09:37:36;98389.06;;;8.09;51.20
69911;BME280;63555;49.920;17.868;2023-03-15T09:48:13;98394.91;;;8.12;50.99
69911;BME280;63555;49.920;17.868;2023-03-15T09:53:23;98416.34;;;8.19;50.73
69911;BME280;63555;49.920;17.868;2023-03-15T09:58:28;98413.88;;;8.28;49.93
69911;BME280;63555;49.920;17.868;2023-03-15T10:03:46;98416.38;;;8.43;49.14
69911;BME280;63555;49.920;17.868;2023-03-15T10:08:50;98402.81;;;8.73;49.31
69911;BME280;63555;49.920;17.868;2023-03-15T10:19:52;98395.94;;;9.29;48.36
69911;BME280;63555;49.920;17.868;2023-03-15T10:30:23;98400.63;;;8.90;48.19
69911;BME280;63555;49.920;17.868;2023-03-15T10:35:24;98391.59;;;8.71;48.85
69911;BME280;63555;49.920;17.868;2023-03-15T10:40:39;98390.44;;;8.86;48.15
69911;BME280;63555;49.920;17.868;2023-03-15T10:45:40;98388.72;;;9.09;48.33
69911;BME280;63555;49.920;17.868;2023-03-15T10:50:40;98393.88;;;9.10;47.40
69911;BME280;63555;49.920;17.868;2023-03-15T10:55:44;98402.75;;;9.32;47.41
69911;BME280;63555;49.920;17.868;2023-03-15T11:01:06;98400.06;;;10.00;46.35
69911;BME280;63555;49.920;17.868;2023-03-15T11:06:23;98392.34;;;11.27;44.79
69911;BME280;63555;49.920;17.868;2023-03-15T11:11:25;98390.22;;;11.62;43.41
69911;BME280;63555;49.920;17.868;2023-03-15T11:16:25;98401.22;;;11.88;43.69
69911;BME280;63555;49.920;17.868;2023-03-15T11:21:33;98380.28;;;12.65;42.24
69911;BME280;63555;49.920;17.868;2023-03-15T11:26:37;98383.34;;;12.80;41.62
69911;BME280;63555;49.920;17.868;2023-03-15T11:31:38;98377.66;;;13.23;40.18
69911;BME280;63555;49.920;17.868;2023-03-15T11:36:43;98376.94;;;14.60;38.71
69911;BME280;63555;49.920;17.868;2023-03-15T11:41:58;98373.09;;;16.62;35.87
69911;BME280;63555;49.920;17.868;2023-03-15T11:52:53;98380.44;;;15.57;36.04
69911;BME280;63555;49.920;17.868;2023-03-15T11:57:55;98394.16;;;14.74;36.49
69911;BME280;63555;49.920;17.868;2023-03-15T12:02:59;98387.03;;;14.56;36.84
69911;BME280;63555;49.920;17.868;2023-03-15T12:08:21;98379.94;;;14.02;37.35
69911;BME280;63555;49.920;17.868;2023-03-15T12:13:29;98380.56;;;12.82;38.30
69911;BME280;63555;49.920;17.868;2023-03-15T12:18:32;98382.91;;;12.06;38.60
69911;BME280;63555;49.920;17.868;2023-03-15T12:24:00;98377.88;;;11.42;39.11
69911;BME280;63555;49.920;17.868;2023-03-15T12:40:00;98384.47;;;10.31;40.47
69911;BME280;63555;49.920;17.868;2023-03-15T12:55:43;98395.75;;;9.88;41.29
69911;BME280;63555;49.920;17.868;2023-03-15T13:00:44;98411.69;;;9.86;41.33
69911;BME280;63555;49.920;17.868;2023-03-15T13:06:09;98405.94;;;9.93;41.39
69911;BME280;63555;49.920;17.868;2023-03-15T13:16:39;98404.03;;;11.96;38.75
69911;BME280;63555;49.920;17.868;2023-03-15T13:32:25;98423.75;;;13.11;36.37
69911;BME280;63555;49.920;17.868;2023-03-15T13:37:26;98419.59;;;13.18;36.15
69911;BME280;63555;49.920;17.868;2023-03-15T13:42:29;98424.16;;;12.97;35.86
69911;BME280;63555;49.920;17.868;2023-03-15T13:47:30;98432.88;;;12.09;36.10
69911;BME280;63555;49.920;17.868;2023-03-15T13:52:30;98438.94;;;11.28;36.95
69911;BME280;63555;49.920;17.868;2023-03-15T13:57:31;98441.03;;;11.13;37.52
69911;BME280;63555;49.920;17.868;2023-03-15T14:07:44;98439.41;;;12.45;36.13
69911;BME280;63555;49.920;17.868;2023-03-15T14:12:45;98441.72;;;13.07;35.47
69911;BME280;63555;49.920;17.868;2023-03-15T14:18:16;98443.50;;;13.65;35.02
69911;BME280;63555;49.920;17.868;2023-03-15T14:23:18;98450.81;;;14.00;34.32
69911;BME280;63555;49.920;17.868;2023-03-15T14:28:21;98445.69;;;13.89;34.81
69911;BME280;63555;49.920;17.868;2023-03-15T14:38:35;98451.78;;;12.44;36.52
69911;BME280;63555;49.920;17.868;2023-03-15T14:43:35;98454.75;;;11.69;37.62
69911;BME280;63555;49.920;17.868;2023-03-15T14:48:36;98446.22;;;12.38;36.98
69911;BME280;63555;49.920;17.868;2023-03-15T14:53:36;98450.66;;;13.35;35.77
69911;BME280;63555;49.920;17.868;2023-03-15T14:58:37;98444.34;;;12.98;35.70
69911;BME280;63555;49.920;17.868;2023-03-15T15:08:42;98470.38;;;10.44;39.31
69911;BME280;63555;49.920;17.868;2023-03-15T15:13:43;98463.97;;;9.57;40.41
69911;BME280;63555;49.920;17.868;2023-03-15T15:18:43;98477.13;;;8.51;41.60
69911;BME280;63555;49.920;17.868;2023-03-15T15:23:44;98473.84;;;7.85;42.53
69911;BME280;63555;49.920;17.868;2023-03-15T15:28:46;98484.72;;;7.41;43.67
69911;BME280;63555;49.920;17.868;2023-03-15T15:33:47;98485.13;;;7.35;43.74
69911;BME280;63555;49.920;17.868;2023-03-15T15:38:47;98474.97;;;8.07;42.80
69911;BME280;63555;49.920;17.868;2023-03-15T15:43:48;98464.19;;;9.19;41.33
69911;BME280;63555;49.920;17.868;2023-03-15T15:48:49;98462.50;;;9.53;40.53
69911;BME280;63555;49.920;17.868;2023-03-15T15:53:50;98460.66;;;8.97;41.29
69911;BME280;63555;49.920;17.868;2023-03-15T15:58:51;98472.28;;;8.45;42.05
69911;BME280;63555;49.920;17.868;2023-03-15T16:03:52;98469.38;;;8.37;42.30
69911;BME280;63555;49.920;17.868;2023-03-15T16:08:53;98477.50;;;7.95;42.92
69911;BME280;63555;49.920;17.868;2023-03-15T16:13:53;98491.16;;;7.10;44.26
69911;BME280;63555;49.920;17.868;2023-03-15T16:18:54;98493.16;;;6.38;45.04
69911;BME280;63555;49.920;17.868;2023-03-15T16:23:58;98494.44;;;5.89;45.93
69911;BME280;63555;49.920;17.868;2023-03-15T16:29:00;98500.41;;;5.48;46.90
69911;BME280;63555;49.920;17.868;2023-03-15T16:34:04;98506.63;;;5.16;47.34
69911;BME280;63555;49.920;17.868;2023-03-15T16:39:11;98514.88;;;4.94;48.05
69911;BME280;63555;49.920;17.868;2023-03-15T16:44:17;98522.91;;;4.75;48.37
69911;BME280;63555;49.920;17.868;2023-03-15T16:49:17;98522.81;;;4.61;48.79
69911;BME280;63555;49.920;17.868;2023-03-15T16:54:19;98529.31;;;4.54;49.05
69911;BME280;63555;49.920;17.868;2023-03-15T16:59:20;98533.25;;;4.45;49.30
69911;BME280;63555;49.920;17.868;2023-03-15T17:04:20;98541.97;;;4.28;49.72
69911;BME280;63555;49.920;17.868;2023-03-15T17:09:22;98555.41;;;4.05;50.14
69911;BME280;63555;49.920;17.868;2023-03-15T17:14:29;98565.88;;;3.88;50.42
69911;BME280;63555;49.920;17.868;2023-03-15T17:19:30;98566.19;;;3.81;50.95
69911;BME280;63555;49.920;17.868;2023-03-15T17:24:31;98579.91;;;3.85;51.11
69911;BME280;63555;49.920;17.868;2023-03-15T17:29:31;98586.50;;;3.92;51.30
69911;BME280;63555;49.920;17.868;2023-03-15T17:34:32;98606.91;;;4.01;51.11
69911;BME280;63555;49.920;17.868;2023-03-15T17:39:33;98623.31;;;4.03;52.29
69911;BME280;63555;49.920;17.868;2023-03-15T17:44:33;98624.63;;;3.95;53.81
69911;BME280;63555;49.920;17.868;2023-03-15T17:49:34;98632.69;;;3.90;54.62
69911;BME280;63555;49.920;17.868;2023-03-15T17:54:35;98642.50;;;3.85;54.78
69911;BME280;63555;49.920;17.868;2023-03-15T17:59:36;98633.94;;;3.83;56.14
69911;BME280;63555;49.920;17.868;2023-03-15T18:04:36;98635.84;;;3.79;56.66
69911;BME280;63555;49.920;17.868;2023-03-15T18:09:36;98647.88;;;3.65;56.76
69911;BME280;63555;49.920;17.868;2023-03-15T18:14:37;98646.66;;;3.36;56.97
69911;BME280;63555;49.920;17.868;2023-03-15T18:19:37;98653.91;;;3.12;57.61
69911;BME280;63555;49.920;17.868;2023-03-15T18:24:38;98652.72;;;3.00;58.17
69911;BME280;63555;49.920;17.868;2023-03-15T18:29:38;98669.63;;;2.92;58.84
69911;BME280;63555;49.920;17.868;2023-03-15T18:34:38;98669.34;;;2.79;59.17
69911;BME280;63555;49.920;17.868;2023-03-15T18:39:40;98671.31;;;2.74;59.50
69911;BME280;63555;49.920;17.868;2023-03-15T18:44:41;98674.69;;;2.76;60.80
69911;BME280;63555;49.920;17.868;2023-03-15T18:49:43;98676.09;;;2.83;60.10
69911;BME280;63555;49.920;17.868;2023-03-15T18:54:43;98675.19;;;2.84;61.06
69911;BME280;63555;49.920;17.868;2023-03-15T18:59:43;98684.25;;;2.75;61.35
69911;BME280;63555;49.920;17.868;2023-03-15T19:04:44;98688.25;;;2.64;61.72
69911;BME280;63555;49.920;17.868;2023-03-15T19:09:44;98706.72;;;2.58;62.30
69911;BME280;63555;49.920;17.868;2023-03-15T19:14:46;98721.41;;;2.59;62.85
69911;BME280;63555;49.920;17.868;2023-03-15T19:19:46;98714.28;;;2.64;63.52
69911;BME280;63555;49.920;17.868;2023-03-15T19:24:46;98715.63;;;2.72;63.81
69911;BME280;63555;49.920;17.868;2023-03-15T19:29:47;98716.13;;;2.80;64.63
69911;BME280;63555;49.920;17.868;2023-03-15T19:34:47;98718.59;;;2.83;64.86
69911;BME280;63555;49.920;17.868;2023-03-15T19:39:48;98726.41;;;2.83;64.81
69911;BME280;63555;49.920;17.868;2023-03-15T19:44:48;98728.16;;;2.83;64.46
69911;BME280;63555;49.920;17.868;2023-03-15T19:49:48;98728.59;;;2.74;64.95
69911;BME280;63555;49.920;17.868;2023-03-15T19:54:49;98744.84;;;2.59;65.16
69911;BME280;63555;49.920;17.868;2023-03-15T19:59:50;98749.16;;;2.39;64.95
69911;BME280;63555;49.920;17.868;2023-03-15T20:04:51;98760.22;;;2.24;65.45
69911;BME280;63555;49.920;17.868;2023-03-15T20:09:51;98767.31;;;2.20;65.76
69911;BME280;63555;49.920;17.868;2023-03-15T20:14:52;98769.78;;;2.23;66.42
69911;BME280;63555;49.920;17.868;2023-03-15T20:19:53;98761.00;;;2.26;65.88
69911;BME280;63555;49.920;17.868;2023-03-15T20:24:54;98765.22;;;2.29;66.67
69911;BME280;63555;49.920;17.868;2023-03-15T20:29:54;98770.09;;;2.36;66.79
69911;BME280;63555;49.920;17.868;2023-03-15T20:34:57;98777.72;;;2.41;66.58
69911;BME280;63555;49.920;17.868;2023-03-15T20:39:57;98786.69;;;2.34;66.24
69911;BME280;63555;49.920;17.868;2023-03-15T20:44:58;98775.34;;;2.14;66.35
69911;BME280;63555;49.920;17.868;2023-03-15T20:49:58;98786.47;;;1.98;66.60
69911;BME280;63555;49.920;17.868;2023-03-15T20:54:59;98789.50;;;1.87;66.65
69911;BME280;63555;49.920;17.868;2023-03-15T21:00:00;98792.28;;;1.82;67.41
69911;BME280;63555;49.920;17.868;2023-03-15T21:05:01;98802.06;;;1.76;66.99
69911;BME280;63555;49.920;17.868;2023-03-15T21:10:01;98806.56;;;1.71;67.51
69911;BME280;63555;49.920;17.868;2023-03-15T21:15:03;98809.41;;;1.65;67.75
69911;BME280;63555;49.920;17.868;2023-03-15T21:20:04;98818.16;;;1.62;67.63
69911;BME280;63555;49.920;17.868;2023-03-15T21:25:06;98820.09;;;1.57;67.57
69911;BME280;63555;49.920;17.868;2023-03-15T21:30:07;98831.56;;;1.51;67.93
69911;BME280;63555;49.920;17.868;2023-03-15T21:35:09;98841.41;;;1.43;67.58
69911;BME280;63555;49.920;17.868;2023-03-15T21:40:11;98841.75;;;1.34;67.60
69911;BME280;63555;49.920;17.868;2023-03-15T21:45:11;98844.06;;;1.18;68.46
69911;BME280;63555;49.920;17.868;2023-03-15T21:50:12;98847.84;;;1.10;68.70
69911;BME280;63555;49.920;17.868;2023-03-15T21:55:12;98853.22;;;1.05;68.61
69911;BME280;63555;49.920;17.868;2023-03-15T22:00:14;98851.56;;;1.03;68.60
69911;BME280;63555;49.920;17.868;2023-03-15T22:05:16;98856.03;;;0.99;68.56
69911;BME280;63555;49.920;17.868;2023-03-15T22:10:16;98858.69;;;0.98;68.74
69911;BME280;63555;49.920;17.868;2023-03-15T22:15:19;98866.78;;;0.88;68.63
69911;BME280;63555;49.920;17.868;2023-03-15T22:20:21;98873.00;;;0.83;68.73
69911;BME280;63555;49.920;17.868;2023-03-15T22:25:22;98877.13;;;0.63;68.57
69911;BME280;63555;49.920;17.868;2023-03-15T22:30:23;98880.75;;;0.33;68.83
69911;BME280;63555;49.920;17.868;2023-03-15T22:35:24;98881.56;;;0.07;69.07
69911;BME280;63555;49.920;17.868;2023-03-15T22:40:26;98880.56;;;-0.17;69.55
69911;BME280;63555;49.920;17.868;2023-03-15T22:45:27;98887.19;;;-0.36;69.76
69911;BME280;63555;49.920;17.868;2023-03-15T22:50:27;98889.66;;;-0.61;69.62
69911;BME280;63555;49.920;17.868;2023-03-15T22:55:27;98891.25;;;-0.88;69.99
69911;BME280;63555;49.920;17.868;2023-03-15T23:00:28;98897.94;;;-1.12;70.24
69911;BME280;63555;49.920;17.868;2023-03-15T23:05:29;98900.00;;;-1.24;70.89
69911;BME280;63555;49.920;17.868;2023-03-15T23:10:30;98906.13;;;-1.29;71.01
69911;BME280;63555;49.920;17.868;2023-03-15T23:15:30;98914.66;;;-1.25;71.44
69911;BME280;63555;49.920;17.868;2023-03-15T23:20:31;98921.94;;;-1.07;71.71
69911;BME280;63555;49.920;17.868;2023-03-15T23:25:36;98920.44;;;-0.81;72.13
69911;BME280;63555;49.920;17.868;2023-03-15T23:30:38;98924.97;;;-0.58;71.64
69911;BME280;63555;49.920;17.868;2023-03-15T23:35:39;98924.56;;;-0.45;71.29
69911;BME280;63555;49.920;17.868;2023-03-15T23:40:41;98928.81;;;-0.42;70.82
69911;BME280;63555;49.920;17.868;2023-03-15T23:45:41;98926.19;;;-0.41;70.74
69911;BME280;63555;49.920;17.868;2023-03-15T23:50:41;98925.16;;;-0.35;71.01
69911;BME280;63555;49.920;17.868;2023-03-15T23:55:43;98934.22;;;-0.20;71.32
